createdAt,value
2018-05-27T00:00:11.142Z,22.46
2018-05-27T00:01:11.133Z,22.38
2018-05-27T00:02:11.119Z,22.41
2018-05-27T00:03:11.113Z,22.34
2018-05-27T00:04:11.102Z,22.30
2018-05-27T00:05:11.085Z,22.27
2018-05-27T00:06:11.078Z,22.22
2018-05-27T00:07:11.073Z,22.28
2018-05-27T00:08:11.062Z,22.25
2018-05-27T00:09:11.053Z,22.23
2018-05-27T00:10:11.038Z,22.27
2018-05-27T00:11:11.034Z,22.22
2018-05-27T00:12:11.025Z,22.22
2018-05-27T00:13:11.015Z,22.28
2018-05-27T00:14:11.009Z,22.16
2018-05-27T00:15:10.995Z,22.21
2018-05-27T00:16:10.983Z,22.11
2018-05-27T00:17:10.973Z,22.13
2018-05-27T00:18:10.965Z,22.09
2018-05-27T00:19:10.955Z,22.11
2018-05-27T00:20:10.944Z,22.12
2018-05-27T00:21:10.934Z,22.07
2018-05-27T00:22:10.920Z,22.01
2018-05-27T00:23:10.915Z,22.03
2018-05-27T00:24:10.907Z,22.04
2018-05-27T00:26:10.894Z,22.03
2018-05-27T00:27:10.867Z,22.01
2018-05-27T00:28:10.867Z,21.97
2018-05-27T00:29:10.856Z,21.96
2018-05-27T00:30:10.846Z,21.88
2018-05-27T00:32:10.819Z,21.98
2018-05-27T00:33:10.809Z,21.90
2018-05-27T00:34:10.803Z,21.90
2018-05-27T00:35:10.789Z,21.96
2018-05-27T00:36:10.794Z,21.93
2018-05-27T00:37:10.773Z,21.94
2018-05-27T00:38:10.756Z,21.91
2018-05-27T00:39:10.749Z,21.94
2018-05-27T00:40:10.743Z,21.93
2018-05-27T00:41:10.727Z,21.88
2018-05-27T00:42:10.719Z,21.88
2018-05-27T00:43:10.709Z,21.94
2018-05-27T00:44:10.703Z,21.96
2018-05-27T00:45:10.686Z,21.94
2018-05-27T00:47:10.667Z,21.91
2018-05-27T00:48:10.713Z,21.91
2018-05-27T00:49:10.660Z,21.91
2018-05-27T00:50:10.643Z,21.98
2018-05-27T00:51:10.628Z,21.91
2018-05-27T00:52:10.612Z,21.98
2018-05-27T00:53:10.606Z,21.91
2018-05-27T00:54:10.597Z,21.91
2018-05-27T00:55:10.584Z,21.91
2018-05-27T00:56:10.583Z,21.82
2018-05-27T00:57:10.568Z,21.88
2018-05-27T00:58:10.555Z,21.75
2018-05-27T00:59:10.548Z,21.88
2018-05-27T01:00:10.539Z,21.85
2018-05-27T01:01:10.533Z,21.78
2018-05-27T01:02:10.513Z,21.75
2018-05-27T01:03:10.501Z,21.75
2018-05-27T01:04:10.494Z,21.69
2018-05-27T01:05:10.481Z,21.63
2018-05-27T01:06:10.472Z,21.67
2018-05-27T01:07:10.463Z,21.60
2018-05-27T01:08:10.452Z,21.66
2018-05-27T01:09:10.437Z,21.55
2018-05-27T01:10:10.423Z,21.51
2018-05-27T01:11:10.421Z,21.48
2018-05-27T01:12:10.411Z,21.50
2018-05-27T01:13:10.399Z,21.51
2018-05-27T01:14:10.392Z,21.50
2018-05-27T01:15:10.378Z,21.53
2018-05-27T01:16:10.366Z,21.47
2018-05-27T01:17:10.357Z,21.53
2018-05-27T01:18:10.350Z,21.53
2018-05-27T01:19:10.334Z,21.48
2018-05-27T01:20:10.331Z,21.43
2018-05-27T01:21:10.323Z,21.44
2018-05-27T01:22:10.310Z,21.47
2018-05-27T01:23:10.296Z,21.45
2018-05-27T01:24:10.286Z,21.48
2018-05-27T01:25:10.274Z,21.47
2018-05-27T01:26:10.268Z,21.34
2018-05-27T01:28:10.235Z,21.35
2018-05-27T01:29:10.243Z,21.38
2018-05-27T01:30:10.216Z,21.43
2018-05-27T01:31:10.207Z,21.34
2018-05-27T01:32:10.202Z,21.35
2018-05-27T01:33:10.331Z,21.37
2018-05-27T01:34:10.182Z,21.35
2018-05-27T01:35:10.268Z,21.35
2018-05-27T01:36:10.162Z,21.32
2018-05-27T01:37:10.147Z,21.34
2018-05-27T01:38:10.140Z,21.23
2018-05-27T01:39:10.175Z,21.25
2018-05-27T01:40:10.111Z,21.19
2018-05-27T01:41:10.105Z,21.19
2018-05-27T01:42:10.102Z,21.19
2018-05-27T01:44:10.072Z,21.16
2018-05-27T01:45:10.060Z,21.13
2018-05-27T01:46:10.053Z,21.25
2018-05-27T01:47:10.035Z,21.19
2018-05-27T01:48:10.038Z,21.13
2018-05-27T01:49:10.033Z,21.16
2018-05-27T01:50:10.011Z,21.13
2018-05-27T01:51:09.998Z,21.14
2018-05-27T01:52:09.987Z,21.13
2018-05-27T01:53:09.979Z,21.13
2018-05-27T01:54:09.971Z,21.14
2018-05-27T01:55:09.955Z,21.10
2018-05-27T01:56:09.939Z,21.18
2018-05-27T01:57:09.942Z,21.07
2018-05-27T01:58:09.929Z,21.05
2018-05-27T01:59:09.924Z,21.05
2018-05-27T02:00:09.908Z,20.97
2018-05-27T02:01:09.892Z,20.89
2018-05-27T02:02:09.880Z,21.05
2018-05-27T02:03:09.873Z,21.04
2018-05-27T02:04:09.860Z,20.97
2018-05-27T02:05:09.850Z,20.93
2018-05-27T02:06:09.837Z,20.92
2018-05-27T02:07:09.869Z,20.97
2018-05-27T02:08:09.823Z,21.00
2018-05-27T02:09:09.847Z,20.97
2018-05-27T02:10:09.801Z,20.92
2018-05-27T02:11:09.789Z,20.95
2018-05-27T02:12:09.770Z,20.89
2018-05-27T02:13:09.758Z,20.92
2018-05-27T02:14:09.755Z,20.93
2018-05-27T02:15:09.735Z,20.88
2018-05-27T02:16:09.724Z,20.88
2018-05-27T02:17:09.718Z,20.89
2018-05-27T02:18:09.709Z,20.92
2018-05-27T02:19:09.730Z,20.74
2018-05-27T02:20:09.679Z,20.74
2018-05-27T02:21:09.682Z,20.77
2018-05-27T02:22:09.665Z,20.74
2018-05-27T02:23:09.648Z,20.80
2018-05-27T02:24:09.648Z,20.80
2018-05-27T02:25:09.631Z,20.70
2018-05-27T02:26:09.622Z,20.79
2018-05-27T02:27:09.612Z,20.67
2018-05-27T02:28:09.603Z,20.65
2018-05-27T02:29:09.599Z,20.75
2018-05-27T02:30:09.579Z,20.74
2018-05-27T02:31:09.565Z,20.71
2018-05-27T02:32:09.565Z,20.71
2018-05-27T02:33:09.545Z,20.71
2018-05-27T02:34:09.539Z,20.73
2018-05-27T02:35:09.527Z,20.75
2018-05-27T02:36:09.508Z,20.58
2018-05-27T02:37:09.512Z,20.61
2018-05-27T02:38:09.494Z,20.68
2018-05-27T02:39:09.473Z,20.67
2018-05-27T02:40:09.474Z,20.68
2018-05-27T02:41:09.460Z,20.70
2018-05-27T02:42:09.448Z,20.67
2018-05-27T02:43:09.441Z,20.67
2018-05-27T02:44:09.425Z,20.61
2018-05-27T02:45:09.412Z,20.61
2018-05-27T02:46:09.457Z,20.60
2018-05-27T02:47:09.394Z,20.52
2018-05-27T02:48:09.377Z,20.56
2018-05-27T02:49:09.370Z,20.53
2018-05-27T02:50:09.358Z,20.37
2018-05-27T02:51:09.356Z,20.37
2018-05-27T02:52:09.342Z,20.36
2018-05-27T02:53:09.328Z,20.39
2018-05-27T02:54:09.334Z,20.30
2018-05-27T02:55:09.305Z,20.37
2018-05-27T02:56:09.294Z,20.39
2018-05-27T02:57:09.282Z,20.41
2018-05-27T02:58:09.273Z,20.36
2018-05-27T02:59:09.262Z,20.32
2018-05-27T03:00:09.253Z,20.25
2018-05-27T03:01:09.230Z,20.25
2018-05-27T03:02:09.232Z,20.22
2018-05-27T03:03:09.219Z,20.15
2018-05-27T03:04:09.207Z,20.18
2018-05-27T03:05:09.187Z,20.11
2018-05-27T03:06:09.181Z,20.11
2018-05-27T03:07:09.172Z,20.18
2018-05-27T03:08:09.162Z,20.14
2018-05-27T03:09:09.156Z,20.09
2018-05-27T03:10:09.135Z,20.11
2018-05-27T03:11:09.122Z,20.11
2018-05-27T03:12:09.116Z,20.11
2018-05-27T03:13:09.103Z,20.15
2018-05-27T03:14:09.095Z,20.12
2018-05-27T03:15:09.077Z,20.18
2018-05-27T03:16:09.064Z,20.11
2018-05-27T03:17:09.062Z,20.14
2018-05-27T03:18:09.045Z,20.11
2018-05-27T03:19:09.039Z,20.07
2018-05-27T03:20:09.033Z,20.12
2018-05-27T03:21:09.016Z,20.11
2018-05-27T03:22:08.994Z,20.09
2018-05-27T03:23:09.119Z,20.08
2018-05-27T03:24:08.977Z,20.08
2018-05-27T03:25:08.972Z,20.07
2018-05-27T03:26:08.956Z,20.09
2018-05-27T03:27:09.033Z,20.05
2018-05-27T03:28:08.932Z,20.08
2018-05-27T03:29:08.990Z,20.07
2018-05-27T03:30:08.915Z,20.17
2018-05-27T03:31:08.924Z,20.11
2018-05-27T03:32:08.891Z,20.12
2018-05-27T03:33:08.985Z,20.08
2018-05-27T03:34:08.868Z,20.14
2018-05-27T03:35:08.860Z,20.04
2018-05-27T03:36:08.837Z,20.08
2018-05-27T03:37:08.933Z,20.07
2018-05-27T03:38:08.821Z,20.12
2018-05-27T03:39:08.808Z,20.17
2018-05-27T03:40:08.805Z,20.05
2018-05-27T03:41:08.795Z,20.05
2018-05-27T03:42:08.777Z,20.02
2018-05-27T03:43:08.767Z,20.12
2018-05-27T03:44:08.754Z,20.09
2018-05-27T03:45:08.739Z,20.07
2018-05-27T03:46:08.734Z,20.08
2018-05-27T03:48:08.709Z,20.12
2018-05-27T03:49:08.696Z,20.12
2018-05-27T03:50:08.686Z,20.05
2018-05-27T03:51:08.668Z,20.08
2018-05-27T03:52:08.661Z,20.14
2018-05-27T03:53:08.652Z,20.14
2018-05-27T03:54:08.653Z,20.11
2018-05-27T03:55:08.624Z,20.18
2018-05-27T03:56:08.619Z,20.17
2018-05-27T03:57:08.600Z,20.22
2018-05-27T03:58:08.600Z,20.12
2018-05-27T03:59:08.589Z,20.17
2018-05-27T04:00:08.624Z,20.19
2018-05-27T04:01:08.566Z,20.15
2018-05-27T04:02:08.546Z,20.11
2018-05-27T04:03:08.549Z,20.14
2018-05-27T04:04:08.526Z,20.08
2018-05-27T04:05:08.513Z,20.09
2018-05-27T04:06:08.510Z,20.11
2018-05-27T04:07:08.500Z,20.09
2018-05-27T04:09:08.477Z,20.05
2018-05-27T04:10:08.465Z,20.05
2018-05-27T04:11:08.447Z,20.05
2018-05-27T04:12:08.440Z,19.97
2018-05-27T04:13:08.420Z,19.94
2018-05-27T04:14:08.404Z,19.89
2018-05-27T04:15:08.408Z,19.94
2018-05-27T04:16:08.392Z,19.94
2018-05-27T04:17:08.376Z,19.93
2018-05-27T04:18:08.366Z,19.93
2018-05-27T04:19:08.352Z,19.92
2018-05-27T04:20:08.340Z,19.92
2018-05-27T04:21:08.326Z,19.94
2018-05-27T04:22:08.313Z,19.89
2018-05-27T04:23:08.307Z,19.84
2018-05-27T04:24:08.303Z,19.82
2018-05-27T04:25:08.285Z,19.84
2018-05-27T04:26:08.275Z,19.84
2018-05-27T04:27:08.263Z,19.81
2018-05-27T04:28:08.246Z,19.87
2018-05-27T04:29:08.240Z,19.81
2018-05-27T04:30:08.229Z,19.84
2018-05-27T04:31:08.216Z,19.84
2018-05-27T04:32:08.212Z,19.84
2018-05-27T04:33:08.195Z,19.99
2018-05-27T04:34:08.179Z,19.86
2018-05-27T04:35:08.172Z,19.93
2018-05-27T04:36:08.166Z,19.92
2018-05-27T04:37:08.150Z,19.90
2018-05-27T04:38:08.139Z,19.92
2018-05-27T04:39:08.128Z,19.93
2018-05-27T04:40:08.115Z,19.94
2018-05-27T04:41:08.095Z,19.99
2018-05-27T04:42:08.098Z,19.93
2018-05-27T04:43:08.076Z,19.89
2018-05-27T04:44:08.069Z,19.90
2018-05-27T04:45:08.060Z,19.90
2018-05-27T04:46:08.048Z,19.99
2018-05-27T04:47:08.032Z,20.09
2018-05-27T04:48:08.035Z,20.12
2018-05-27T04:49:08.019Z,20.11
2018-05-27T04:50:07.996Z,20.15
2018-05-27T04:51:07.990Z,20.18
2018-05-27T04:52:07.978Z,20.17
2018-05-27T04:53:07.961Z,20.12
2018-05-27T04:54:08.003Z,20.19
2018-05-27T04:55:07.948Z,20.18
2018-05-27T04:56:07.931Z,20.22
2018-05-27T04:57:07.930Z,20.23
2018-05-27T04:58:07.906Z,20.32
2018-05-27T05:00:07.890Z,20.26
2018-05-27T05:01:07.869Z,20.23
2018-05-27T05:02:07.865Z,20.34
2018-05-27T05:03:07.856Z,20.33
2018-05-27T05:04:07.843Z,20.34
2018-05-27T05:05:07.826Z,20.44
2018-05-27T05:06:07.821Z,20.48
2018-05-27T05:07:07.811Z,20.52
2018-05-27T05:08:07.801Z,20.53
2018-05-27T05:09:07.789Z,20.56
2018-05-27T05:10:07.779Z,20.61
2018-05-27T05:11:07.766Z,20.68
2018-05-27T05:12:07.760Z,20.64
2018-05-27T05:13:07.743Z,20.70
2018-05-27T05:14:07.726Z,20.73
2018-05-27T05:15:07.723Z,20.75
2018-05-27T05:16:07.713Z,20.71
2018-05-27T05:17:07.698Z,20.75
2018-05-27T05:18:07.686Z,20.79
2018-05-27T05:19:07.678Z,20.80
2018-05-27T05:20:07.672Z,20.68
2018-05-27T05:21:07.656Z,20.75
2018-05-27T05:22:07.651Z,20.86
2018-05-27T05:23:07.626Z,20.75
2018-05-27T05:24:07.624Z,20.75
2018-05-27T05:26:07.598Z,20.86
2018-05-27T05:27:07.592Z,20.90
2018-05-27T05:28:07.581Z,20.89
2018-05-27T05:29:07.572Z,20.90
2018-05-27T05:30:07.562Z,21.00
2018-05-27T05:32:07.537Z,21.01
2018-05-27T05:33:07.542Z,21.11
2018-05-27T05:34:07.519Z,21.08
2018-05-27T05:35:07.608Z,21.13
2018-05-27T05:36:07.486Z,21.16
2018-05-27T05:37:07.581Z,21.26
2018-05-27T05:38:07.484Z,21.25
2018-05-27T05:39:07.458Z,21.19
2018-05-27T05:40:07.452Z,21.28
2018-05-27T05:41:07.441Z,21.35
2018-05-27T05:42:07.429Z,21.40
2018-05-27T05:43:07.430Z,21.47
2018-05-27T05:44:07.409Z,21.41
2018-05-27T05:45:07.397Z,21.37
2018-05-27T05:46:07.389Z,21.48
2018-05-27T05:47:07.381Z,21.53
2018-05-27T05:48:07.379Z,21.50
2018-05-27T05:49:07.364Z,21.55
2018-05-27T05:50:07.349Z,21.47
2018-05-27T05:51:07.343Z,21.60
2018-05-27T05:52:07.325Z,21.53
2018-05-27T05:53:07.310Z,21.50
2018-05-27T05:54:07.300Z,21.60
2018-05-27T05:55:07.287Z,21.50
2018-05-27T05:56:07.284Z,21.58
2018-05-27T05:57:07.284Z,21.63
2018-05-27T05:58:07.259Z,21.60
2018-05-27T05:59:07.259Z,21.65
2018-05-27T06:00:07.239Z,21.66
2018-05-27T06:01:07.250Z,21.67
2018-05-27T06:02:07.217Z,21.73
2018-05-27T06:03:07.217Z,21.63
2018-05-27T06:04:07.207Z,21.67
2018-05-27T06:05:07.192Z,21.71
2018-05-27T06:06:07.181Z,21.67
2018-05-27T06:07:07.173Z,21.69
2018-05-27T06:08:07.174Z,21.67
2018-05-27T06:09:07.147Z,21.71
2018-05-27T06:10:07.141Z,21.80
2018-05-27T06:11:07.133Z,21.93
2018-05-27T06:12:07.122Z,21.98
2018-05-27T06:13:07.112Z,21.94
2018-05-27T06:14:07.107Z,22.01
2018-05-27T06:15:07.090Z,21.96
2018-05-27T06:16:07.081Z,22.09
2018-05-27T06:17:07.079Z,22.09
2018-05-27T06:18:07.061Z,22.13
2018-05-27T06:19:07.054Z,22.07
2018-05-27T06:20:07.045Z,22.07
2018-05-27T06:21:07.033Z,22.27
2018-05-27T06:22:07.023Z,22.19
2018-05-27T06:23:07.018Z,22.27
2018-05-27T06:24:07.000Z,22.33
2018-05-27T06:25:06.990Z,22.30
2018-05-27T06:26:06.982Z,22.25
2018-05-27T06:27:06.972Z,22.21
2018-05-27T06:28:06.964Z,22.12
2018-05-27T06:29:06.952Z,22.18
2018-05-27T06:30:06.943Z,22.27
2018-05-27T06:31:06.930Z,22.30
2018-05-27T06:32:07.007Z,22.33
2018-05-27T06:33:06.914Z,22.44
2018-05-27T06:34:06.901Z,22.49
2018-05-27T06:35:06.888Z,22.53
2018-05-27T06:36:06.892Z,22.56
2018-05-27T06:37:06.885Z,22.55
2018-05-27T06:38:06.866Z,22.53
2018-05-27T06:39:06.860Z,22.61
2018-05-27T06:40:06.847Z,22.61
2018-05-27T06:41:06.833Z,22.66
2018-05-27T06:42:06.827Z,22.66
2018-05-27T06:43:06.823Z,22.78
2018-05-27T06:44:06.807Z,22.77
2018-05-27T06:45:06.796Z,22.73
2018-05-27T06:46:06.789Z,22.83
2018-05-27T06:47:06.780Z,22.98
2018-05-27T06:48:06.774Z,22.92
2018-05-27T06:49:06.754Z,23.06
2018-05-27T06:50:06.751Z,23.10
2018-05-27T06:51:06.741Z,23.06
2018-05-27T06:52:06.738Z,23.11
2018-05-27T06:53:06.720Z,23.23
2018-05-27T06:54:06.711Z,23.28
2018-05-27T06:55:06.699Z,23.34
2018-05-27T06:56:06.688Z,23.45
2018-05-27T06:57:06.681Z,23.41
2018-05-27T06:58:06.731Z,23.48
2018-05-27T06:59:06.660Z,23.55
2018-05-27T07:00:06.662Z,23.60
2018-05-27T07:01:06.647Z,23.56
2018-05-27T07:02:06.640Z,23.63
2018-05-27T07:03:06.631Z,23.46
2018-05-27T07:04:06.619Z,23.56
2018-05-27T07:05:06.611Z,23.63
2018-05-27T07:06:06.607Z,23.74
2018-05-27T07:07:06.589Z,23.79
2018-05-27T07:08:06.583Z,23.88
2018-05-27T07:10:06.569Z,23.92
2018-05-27T07:11:06.562Z,24.03
2018-05-27T07:12:06.547Z,24.06
2018-05-27T07:13:06.538Z,24.04
2018-05-27T07:14:06.531Z,23.94
2018-05-27T07:15:06.518Z,23.91
2018-05-27T07:16:06.512Z,24.03
2018-05-27T07:17:06.645Z,24.16
2018-05-27T07:18:06.502Z,24.07
2018-05-27T07:19:06.551Z,24.07
2018-05-27T07:20:06.477Z,24.15
2018-05-27T07:21:06.476Z,24.19
2018-05-27T07:22:06.457Z,24.37
2018-05-27T07:23:06.560Z,24.34
2018-05-27T07:24:06.449Z,24.36
2018-05-27T07:25:06.440Z,24.44
2018-05-27T07:26:06.432Z,24.51
2018-05-27T07:27:06.419Z,24.55
2018-05-27T07:28:06.432Z,24.68
2018-05-27T07:29:06.397Z,24.65
2018-05-27T07:30:06.390Z,24.79
2018-05-27T07:31:06.383Z,24.82
2018-05-27T07:32:06.378Z,24.89
2018-05-27T07:33:06.367Z,24.89
2018-05-27T07:34:06.357Z,24.85
2018-05-27T07:35:06.352Z,25.01
2018-05-27T07:36:06.342Z,25.04
2018-05-27T07:37:06.332Z,25.19
2018-05-27T07:38:06.326Z,25.27
2018-05-27T07:40:06.633Z,25.36
2018-05-27T07:41:06.299Z,25.14
2018-05-27T07:42:06.290Z,24.97
2018-05-27T07:43:06.284Z,25.16
2018-05-27T07:44:06.277Z,25.21
2018-05-27T07:45:06.270Z,25.33
2018-05-27T07:46:06.263Z,25.26
2018-05-27T07:47:06.248Z,25.30
2018-05-27T07:48:06.246Z,25.43
2018-05-27T07:49:06.245Z,25.33
2018-05-27T07:50:06.230Z,25.27
2018-05-27T07:51:06.223Z,25.23
2018-05-27T07:52:06.210Z,25.34
2018-05-27T07:53:06.204Z,25.56
2018-05-27T07:54:06.204Z,25.64
2018-05-27T07:55:06.188Z,25.64
2018-05-27T07:56:06.181Z,25.78
2018-05-27T07:57:06.176Z,25.93
2018-05-27T07:58:06.217Z,25.92
2018-05-27T07:59:06.162Z,25.85
2018-05-27T08:00:06.201Z,25.98
2018-05-27T08:01:06.143Z,25.95
2018-05-27T08:02:06.191Z,26.03
2018-05-27T08:03:06.133Z,26.04
2018-05-27T08:04:06.117Z,26.33
2018-05-27T08:05:06.108Z,26.46
2018-05-27T08:06:06.106Z,26.52
2018-05-27T08:07:06.110Z,26.65
2018-05-27T08:08:06.092Z,26.76
2018-05-27T08:09:06.079Z,26.94
2018-05-27T08:10:06.072Z,27.19
2018-05-27T08:11:06.070Z,27.30
2018-05-27T08:12:06.063Z,27.41
2018-05-27T08:13:06.052Z,27.54
2018-05-27T08:14:06.050Z,27.63
2018-05-27T08:15:06.044Z,27.80
2018-05-27T08:16:06.028Z,28.03
2018-05-27T08:17:06.031Z,28.07
2018-05-27T08:18:06.019Z,28.20
2018-05-27T08:19:06.009Z,28.31
2018-05-27T08:20:06.091Z,28.53
2018-05-27T08:21:06.003Z,28.56
2018-05-27T08:22:05.993Z,28.80
2018-05-27T08:23:05.987Z,28.86
2018-05-27T08:24:05.984Z,28.91
2018-05-27T08:25:05.991Z,29.00
2018-05-27T08:26:05.970Z,29.02
2018-05-27T08:27:05.953Z,29.13
2018-05-27T08:28:05.961Z,29.18
2018-05-27T08:29:05.948Z,29.25
2018-05-27T08:30:05.942Z,29.36
2018-05-27T08:31:05.942Z,29.41
2018-05-27T08:32:05.936Z,29.22
2018-05-27T08:33:05.924Z,29.22
2018-05-27T08:34:05.918Z,29.17
2018-05-27T08:35:05.976Z,29.15
2018-05-27T08:36:05.910Z,29.18
2018-05-27T08:37:05.910Z,29.24
2018-05-27T08:38:05.899Z,29.21
2018-05-27T08:39:05.896Z,29.27
2018-05-27T08:40:05.896Z,29.43
2018-05-27T08:41:05.889Z,29.50
2018-05-27T08:42:05.887Z,29.36
2018-05-27T08:43:05.889Z,29.37
2018-05-27T08:44:05.886Z,29.39
2018-05-27T08:45:05.878Z,29.61
2018-05-27T08:46:05.911Z,29.70
2018-05-27T08:47:05.881Z,29.74
2018-05-27T08:48:05.875Z,29.77
2018-05-27T08:49:05.882Z,29.98
2018-05-27T08:50:05.866Z,30.08
2018-05-27T08:51:05.873Z,30.30
2018-05-27T08:52:05.872Z,30.39
2018-05-27T08:53:05.873Z,30.40
2018-05-27T08:54:05.869Z,30.02
2018-05-27T08:55:05.869Z,30.14
2018-05-27T08:56:05.870Z,29.87
2018-05-27T08:57:05.866Z,29.95
2018-05-27T08:58:05.871Z,30.03
2018-05-27T08:59:05.873Z,30.30
2018-05-27T09:00:05.869Z,30.56
2018-05-27T09:01:05.869Z,30.89
2018-05-27T09:02:05.872Z,31.04
2018-05-27T09:03:05.877Z,31.22
2018-05-27T09:04:05.872Z,31.44
2018-05-27T09:05:05.881Z,31.70
2018-05-27T09:06:05.878Z,31.78
2018-05-27T09:07:05.882Z,31.82
2018-05-27T09:08:05.886Z,32.09
2018-05-27T09:09:05.892Z,32.27
2018-05-27T09:10:05.886Z,32.19
2018-05-27T09:11:05.894Z,32.36
2018-05-27T09:12:05.897Z,32.50
2018-05-27T09:13:05.896Z,32.58
2018-05-27T09:14:05.899Z,32.36
2018-05-27T09:15:05.918Z,32.69
2018-05-27T09:16:05.915Z,32.94
2018-05-27T09:17:05.911Z,33.20
2018-05-27T09:18:05.917Z,33.49
2018-05-27T09:19:05.908Z,33.81
2018-05-27T09:20:05.909Z,33.95
2018-05-27T09:21:05.928Z,34.15
2018-05-27T09:22:05.922Z,34.22
2018-05-27T09:23:05.921Z,34.22
2018-05-27T09:24:05.927Z,34.38
2018-05-27T09:25:05.953Z,34.34
2018-05-27T09:26:05.928Z,34.57
2018-05-27T09:27:05.935Z,34.66
2018-05-27T09:28:05.936Z,34.44
2018-05-27T09:29:05.941Z,34.35
2018-05-27T09:30:05.943Z,34.55
2018-05-27T09:31:05.937Z,34.75
2018-05-27T09:32:05.948Z,34.91
2018-05-27T09:33:05.948Z,34.91
2018-05-27T09:34:05.948Z,34.99
2018-05-27T09:35:05.948Z,34.63
2018-05-27T09:36:05.962Z,34.66
2018-05-27T09:37:05.962Z,34.85
2018-05-27T09:38:05.960Z,34.73
2018-05-27T09:39:05.961Z,34.94
2018-05-27T09:40:05.960Z,34.50
2018-05-27T09:41:05.958Z,34.52
2018-05-27T09:42:05.970Z,34.52
2018-05-27T09:43:05.982Z,34.83
2018-05-27T09:44:05.968Z,34.92
2018-05-27T09:45:06.002Z,35.12
2018-05-27T09:46:05.967Z,35.12
2018-05-27T09:47:05.981Z,34.59
2018-05-27T09:48:05.973Z,34.78
2018-05-27T09:50:05.987Z,34.45
2018-05-27T09:51:06.021Z,34.57
2018-05-27T09:52:06.032Z,34.83
2018-05-27T09:53:05.980Z,35.09
2018-05-27T09:54:05.971Z,34.82
2018-05-27T09:55:05.976Z,34.75
2018-05-27T09:56:06.019Z,34.92
2018-05-27T09:57:05.980Z,35.07
2018-05-27T09:58:05.993Z,34.90
2018-05-27T10:00:05.977Z,34.15
2018-05-27T10:01:05.980Z,33.41
2018-05-27T10:02:05.980Z,33.74
2018-05-27T10:03:05.986Z,33.79
2018-05-27T10:04:05.981Z,32.90
2018-05-27T10:05:05.978Z,32.85
2018-05-27T10:06:05.990Z,33.30
2018-05-27T10:07:05.988Z,33.95
2018-05-27T10:08:05.980Z,34.35
2018-05-27T10:09:05.977Z,34.23
2018-05-27T10:10:05.973Z,34.22
2018-05-27T10:11:05.968Z,34.47
2018-05-27T10:12:05.991Z,34.82
2018-05-27T10:13:05.977Z,35.05
2018-05-27T10:14:05.971Z,35.05
2018-05-27T10:15:05.978Z,34.50
2018-05-27T10:16:05.974Z,34.34
2018-05-27T10:17:05.967Z,34.22
2018-05-27T10:18:05.967Z,34.18
2018-05-27T10:19:06.113Z,34.13
2018-05-27T10:20:05.967Z,32.83
2018-05-27T10:21:05.966Z,32.14
2018-05-27T10:22:05.968Z,32.39
2018-05-27T10:23:05.958Z,32.48
2018-05-27T10:24:05.981Z,32.85
2018-05-27T10:25:05.958Z,32.95
2018-05-27T10:26:06.105Z,32.55
2018-05-27T10:27:05.966Z,32.31
2018-05-27T10:28:05.949Z,31.84
2018-05-27T10:29:05.956Z,31.89
2018-05-27T10:30:05.957Z,31.99
2018-05-27T10:31:05.945Z,32.61
2018-05-27T10:32:05.950Z,32.69
2018-05-27T10:33:05.943Z,32.75
2018-05-27T10:34:05.937Z,32.39
2018-05-27T10:35:05.936Z,31.66
2018-05-27T10:36:05.936Z,31.26
2018-05-27T10:37:05.937Z,30.80
2018-05-27T10:38:05.932Z,30.03
2018-05-27T10:39:05.929Z,30.13
2018-05-27T10:40:05.928Z,30.64
2018-05-27T10:41:05.922Z,30.80
2018-05-27T10:42:05.929Z,30.96
2018-05-27T10:43:05.922Z,31.15
2018-05-27T10:44:05.957Z,31.19
2018-05-27T10:45:05.913Z,31.37
2018-05-27T10:46:05.912Z,31.54
2018-05-27T10:47:05.906Z,31.90
2018-05-27T10:48:05.902Z,31.94
2018-05-27T10:49:05.903Z,31.79
2018-05-27T10:50:05.942Z,30.75
2018-05-27T10:51:05.890Z,30.48
2018-05-27T10:52:05.886Z,30.45
2018-05-27T10:53:05.876Z,30.71
2018-05-27T10:54:05.879Z,30.26
2018-05-27T10:55:05.877Z,30.64
2018-05-27T10:56:05.873Z,30.55
2018-05-27T10:57:05.880Z,30.45
2018-05-27T10:58:05.867Z,30.70
2018-05-27T10:59:05.856Z,30.83
2018-05-27T11:00:05.858Z,31.23
2018-05-27T11:02:05.845Z,32.04
2018-05-27T11:03:05.854Z,32.14
2018-05-27T11:04:05.851Z,32.50
2018-05-27T11:05:05.838Z,32.85
2018-05-27T11:06:05.835Z,32.85
2018-05-27T11:07:05.877Z,32.79
2018-05-27T11:08:05.829Z,32.90
2018-05-27T11:09:05.829Z,32.83
2018-05-27T11:10:05.830Z,32.85
2018-05-27T11:11:05.831Z,32.68
2018-05-27T11:13:05.818Z,32.36
2018-05-27T11:14:05.810Z,32.16
2018-05-27T11:15:05.839Z,32.39
2018-05-27T11:16:05.810Z,32.31
2018-05-27T11:17:05.949Z,32.38
2018-05-27T11:18:05.798Z,32.54
2018-05-27T11:19:05.794Z,32.80
2018-05-27T11:20:05.793Z,32.82
2018-05-27T11:21:05.787Z,33.06
2018-05-27T11:22:05.784Z,32.75
2018-05-27T11:23:05.781Z,32.94
2018-05-27T11:24:05.781Z,33.06
2018-05-27T11:25:05.781Z,32.70
2018-05-27T11:26:05.780Z,32.54
2018-05-27T11:27:05.772Z,32.73
2018-05-27T11:28:05.772Z,32.63
2018-05-27T11:29:05.763Z,32.42
2018-05-27T11:30:05.765Z,32.45
2018-05-27T11:31:05.762Z,32.36
2018-05-27T11:32:05.765Z,31.89
2018-05-27T11:33:05.761Z,32.05
2018-05-27T11:34:05.748Z,32.23
2018-05-27T11:35:05.762Z,32.41
2018-05-27T11:36:05.744Z,32.32
2018-05-27T11:37:05.752Z,32.35
2018-05-27T11:38:05.742Z,32.35
2018-05-27T11:39:05.730Z,32.41
2018-05-27T11:40:05.733Z,32.36
2018-05-27T11:41:05.726Z,32.43
2018-05-27T11:42:05.772Z,32.61
2018-05-27T11:43:05.718Z,32.41
2018-05-27T11:44:05.734Z,32.33
2018-05-27T11:45:05.714Z,32.27
2018-05-27T11:46:05.771Z,32.20
2018-05-27T11:48:05.862Z,32.27
2018-05-27T11:49:05.708Z,31.84
2018-05-27T11:50:05.704Z,31.84
2018-05-27T11:51:05.700Z,31.90
2018-05-27T11:52:05.692Z,31.95
2018-05-27T11:53:05.696Z,31.70
2018-05-27T11:54:05.688Z,31.51
2018-05-27T11:55:05.691Z,31.30
2018-05-27T11:56:05.685Z,31.15
2018-05-27T11:57:05.681Z,31.24
2018-05-27T11:58:05.675Z,31.45
2018-05-27T11:59:05.675Z,31.57
2018-05-27T12:00:05.672Z,31.51
2018-05-27T12:01:05.673Z,31.64
2018-05-27T12:02:05.776Z,31.56
2018-05-27T12:03:05.661Z,31.48
2018-05-27T12:04:05.672Z,31.63
2018-05-27T12:06:05.646Z,32.36
2018-05-27T12:07:05.650Z,32.54
2018-05-27T12:08:05.643Z,32.55
2018-05-27T12:09:05.772Z,32.58
2018-05-27T12:10:05.637Z,32.17
2018-05-27T12:11:05.745Z,32.32
2018-05-27T12:12:05.638Z,32.31
2018-05-27T12:13:05.630Z,32.17
2018-05-27T12:14:05.638Z,32.32
2018-05-27T12:15:05.648Z,32.16
2018-05-27T12:16:05.627Z,31.81
2018-05-27T12:17:05.672Z,31.99
2018-05-27T12:18:05.618Z,32.09
2018-05-27T12:19:05.616Z,32.14
2018-05-27T12:20:05.611Z,32.19
2018-05-27T12:21:05.618Z,32.39
2018-05-27T12:22:05.646Z,32.39
2018-05-27T12:25:05.595Z,31.87
2018-05-27T12:26:05.591Z,31.34
2018-05-27T12:27:05.590Z,31.12
2018-05-27T12:28:05.589Z,30.92
2018-05-27T12:29:05.583Z,30.71
2018-05-27T12:30:05.582Z,30.56
2018-05-27T12:31:05.586Z,30.14
2018-05-27T12:32:05.579Z,30.45
2018-05-27T12:33:05.566Z,30.28
2018-05-27T12:34:05.565Z,30.43
2018-05-27T12:35:05.561Z,30.49
2018-05-27T12:36:05.558Z,30.74
2018-05-27T12:37:05.557Z,31.15
2018-05-27T12:38:05.548Z,31.52
2018-05-27T12:39:05.548Z,31.42
2018-05-27T12:40:05.550Z,31.70
2018-05-27T12:41:05.545Z,31.66
2018-05-27T12:42:05.539Z,31.38
2018-05-27T12:43:05.530Z,31.37
2018-05-27T12:44:05.533Z,31.17
2018-05-27T12:45:05.522Z,30.88
2018-05-27T12:46:05.524Z,30.70
2018-05-27T12:47:05.519Z,30.86
2018-05-27T12:48:05.522Z,30.92
2018-05-27T12:49:05.506Z,30.93
2018-05-27T12:50:05.535Z,30.89
2018-05-27T12:51:05.520Z,30.99
2018-05-27T12:52:05.498Z,30.99
2018-05-27T12:53:05.490Z,30.88
2018-05-27T12:54:05.490Z,30.92
2018-05-27T12:55:05.492Z,30.97
2018-05-27T12:56:05.498Z,31.12
2018-05-27T12:57:05.482Z,31.17
2018-05-27T12:58:05.476Z,31.19
2018-05-27T12:59:05.481Z,30.99
2018-05-27T13:00:05.468Z,31.12
2018-05-27T13:01:05.463Z,31.41
2018-05-27T13:02:05.463Z,31.54
2018-05-27T13:03:05.459Z,31.32
2018-05-27T13:04:05.448Z,31.27
2018-05-27T13:05:05.468Z,31.26
2018-05-27T13:06:05.447Z,31.45
2018-05-27T13:07:05.439Z,31.61
2018-05-27T13:08:05.447Z,31.78
2018-05-27T13:09:05.442Z,31.52
2018-05-27T13:10:05.435Z,31.84
2018-05-27T13:11:05.431Z,32.02
2018-05-27T13:12:05.436Z,32.28